Time;durP1;ratioP1;P1;durP2;ratioP2;P2;SDS_P1;SDS_P2;PMS_P1;PMS_P2;Temp;Humidity;BMP_temperature;BMP_pressure;BME280_temperature;BME280_humidity;BME280_pressure;Samples;Min_cycle;Max_cycle;Signal;HPM_P1;HPM_P2
2021/06/10 00:04:15;;;;;;;6.35;5.12;;;;;;;17.54;56.94;101067.03;4840009;59;1138803;-78
2021/06/10 00:09:21;;;;;;;7.92;5.20;;;;;;;17.63;57.47;101063.94;4839975;59;1138496;-79
2021/06/10 00:14:28;;;;;;;8.83;4.93;;;;;;;17.77;57.76;101061.27;4840250;59;1138529;-78
2021/06/10 00:19:34;;;;;;;9.00;5.10;;;;;;;17.77;57.40;101064.78;4840097;59;1138709;-78
2021/06/10 00:24:40;;;;;;;9.90;4.97;;;;;;;17.61;57.34;101069.93;4840156;59;1138483;-77
2021/06/10 00:29:46;;;;;;;12.40;5.97;;;;;;;17.62;58.02;101066.76;4840248;59;1138576;-80
2021/06/10 00:34:53;;;;;;;7.75;5.45;;;;;;;17.57;57.88;101067.20;4839796;59;1140584;-79
2021/06/10 00:39:58;;;;;;;12.43;5.83;;;;;;;17.28;57.69;101066.53;4839824;59;1138398;-79
2021/06/10 00:45:12;;;;;;;8.00;6.03;;;;;;;17.04;58.32;101065.75;4839661;59;1140928;-76
2021/06/10 00:50:22;;;;;;;21.15;7.35;;;;;;;16.96;58.75;101063.80;4878953;58;1138481;-77
2021/06/10 00:55:28;;;;;;;10.80;6.60;;;;;;;16.87;58.89;101059.34;4887375;59;1140997;-79
2021/06/10 01:00:34;;;;;;;9.83;6.20;;;;;;;16.83;59.15;101060.13;4802804;59;1140919;-77
2021/06/10 01:05:43;;;;;;;8.07;5.97;;;;;;;16.79;59.30;101060.59;4819032;58;1138672;-77
2021/06/10 01:11:23;;;;;;;9.23;6.37;;;;;;;16.72;59.53;101058.13;4818809;59;1138398;-77
2021/06/10 01:16:33;;;;;;;9.37;6.87;;;;;;;16.64;59.79;101058.88;4819339;59;1138837;-77
2021/06/10 01:21:43;;;;;;;11.80;6.90;;;;;;;16.64;60.12;101054.88;4969431;57;1138411;-77
2021/06/10 01:27:05;;;;;;;29.17;13.13;;;;;;;16.84;60.71;101056.96;4969284;57;1140409;-77
2021/06/10 01:32:11;;;;;;;;;;;;;;;17.05;60.55;101058.08;4971164;57;1142456;-80
2021/06/10 01:37:20;;;;;;;28.53;13.47;;;;;;;17.26;60.33;101057.85;4982955;57;976192;-78
2021/06/10 01:42:26;;;;;;;22.77;13.07;;;;;;;17.40;60.16;101054.67;4968708;57;1160942;-78
2021/06/10 01:47:32;;;;;;;12.93;7.10;;;;;;;17.49;59.87;101052.42;4888396;59;1142696;-78
2021/06/10 01:52:41;;;;;;;10.63;6.30;;;;;;;17.43;58.91;101044.98;4739413;59;1140582;-78
2021/06/10 01:57:49;;;;;;;15.33;7.80;;;;;;;17.00;58.62;101036.30;4736144;60;1140436;-81
2021/06/10 02:02:56;;;;;;;11.57;6.43;;;;;;;16.66;59.31;101026.65;4751648;60;1140582;-80
2021/06/10 02:08:04;;;;;;;8.60;5.33;;;;;;;16.51;59.86;101031.59;4751652;60;1141066;-79
2021/06/10 02:13:10;;;;;;;6.53;5.27;;;;;;;16.42;60.47;101026.63;4752064;60;1138727;-77
2021/06/10 02:18:16;;;;;;;5.53;5.03;;;;;;;16.43;60.77;101031.48;4751880;60;1138798;-77
2021/06/10 02:23:22;;;;;;;4.97;4.53;;;;;;;16.50;61.43;101031.23;4895344;58;1138509;-77
2021/06/10 02:28:28;;;;;;;5.33;4.87;;;;;;;16.59;61.74;101030.88;4940081;58;1147652;-79
2021/06/10 02:33:34;;;;;;;6.62;5.22;;;;;;;16.63;61.98;101026.97;4840664;59;1138902;-78
2021/06/10 02:38:45;;;;;;;7.30;4.60;;;;;;;16.74;62.46;101024.11;4840487;59;1138319;-77
2021/06/10 02:43:55;;;;;;;4.73;4.10;;;;;;;16.85;62.25;101023.42;4840426;59;1138503;-77
2021/06/10 02:49:03;;;;;;;13.23;4.53;;;;;;;16.82;61.74;101019.70;4840294;59;1138527;-76
2021/06/10 02:54:12;;;;;;;9.27;5.07;;;;;;;16.75;61.82;101025.80;4840005;59;1140378;-77
2021/06/10 02:59:20;;;;;;;11.23;5.70;;;;;;;16.61;62.13;101027.08;4840094;59;1138815;-78
2021/06/10 03:04:27;;;;;;;4.80;4.40;;;;;;;16.56;62.58;101026.66;4840185;59;1140559;-78
2021/06/10 03:09:34;;;;;;;7.14;4.66;;;;;;;16.52;62.66;101020.77;4840556;59;1138847;-79
2021/06/10 03:14:42;;;;;;;6.08;4.65;;;;;;;16.62;63.21;101018.08;4840219;59;1138853;-80
2021/06/10 03:19:49;;;;;;;8.93;4.80;;;;;;;16.75;63.19;101024.46;4840171;59;1139060;-76
2021/06/10 03:24:56;;;;;;;10.57;5.20;;;;;;;16.58;62.74;101034.04;4840225;59;1138462;-79
2021/06/10 03:30:04;;;;;;;16.10;6.97;;;;;;;16.68;63.42;101029.53;4840011;59;1140475;-76
2021/06/10 03:35:11;;;;;;;12.28;6.25;;;;;;;16.73;63.50;101015.75;4839969;59;1140633;-78
2021/06/10 03:40:18;;;;;;;6.60;5.37;;;;;;;16.72;63.34;101021.58;4840014;59;1140681;-78
2021/06/10 03:45:24;;;;;;;9.17;5.87;;;;;;;16.48;63.43;101016.72;4840407;59;1138462;-80
2021/06/10 03:50:40;;;;;;;7.10;5.33;;;;;;;16.21;64.17;101019.78;4840302;59;1138414;-79
2021/06/10 03:55:43;;;;;;;5.90;5.20;;;;;;;15.89;64.98;101038.27;4969493;58;1138506;-78
2021/06/10 04:00:50;;;;;;;7.40;5.17;;;;;;;15.61;66.26;101073.27;4983777;58;1138669;-77
2021/06/10 04:05:56;;;;;;;8.90;4.00;;;;;;;15.36;66.85;101111.08;4983727;58;1138448;-80
2021/06/10 04:11:02;;;;;;;7.12;4.65;;;;;;;15.38;67.88;101116.62;4983736;58;1138834;-82
2021/06/10 04:16:09;;;;;;;10.50;5.53;;;;;;;15.55;67.82;101119.17;4983643;58;1138450;-82
2021/06/10 04:21:15;;;;;;;13.57;5.23;;;;;;;15.77;67.74;101118.92;4983507;58;1140586;-81
2021/06/10 04:26:21;;;;;;;6.97;4.63;;;;;;;15.97;67.61;101105.13;5023705;57;1140894;-79
2021/06/10 04:31:27;;;;;;;5.50;5.00;;;;;;;16.08;67.49;101084.97;5023907;57;1138569;-77
2021/06/10 04:36:33;;;;;;;7.80;5.10;;;;;;;16.16;67.77;101061.59;4983539;57;1138621;-78
2021/06/10 04:41:39;;;;;;;7.23;5.30;;;;;;;16.29;67.84;101058.62;4983983;57;1138976;-81
2021/06/10 04:46:45;;;;;;;7.08;4.53;;;;;;;16.40;68.00;101062.46;5058044;57;1138823;-80
2021/06/10 04:51:51;;;;;;;5.77;4.77;;;;;;;16.34;68.11;101073.24;5059869;57;1138774;-78
2021/06/10 04:56:57;;;;;;;11.47;6.27;;;;;;;16.11;68.08;101067.34;4947558;57;1138879;-78
2021/06/10 05:02:04;;;;;;;8.53;5.40;;;;;;;15.95;68.96;101080.41;4970388;58;1141026;-78
2021/06/10 05:07:11;;;;;;;7.33;6.40;;;;;;;15.87;69.21;101084.77;4970392;58;1138741;-82
2021/06/10 05:12:17;;;;;;;10.80;6.97;;;;;;;15.79;69.52;101088.95;4970499;58;1138720;-82
2021/06/10 05:17:22;;;;;;;9.33;7.37;;;;;;;15.76;70.18;101097.72;5003592;58;1140531;-82
2021/06/10 05:22:29;;;;;;;10.17;6.87;;;;;;;15.72;70.57;101089.17;4978978;58;1138728;-80
2021/06/10 05:27:34;;;;;;;9.73;6.97;;;;;;;15.73;71.58;101086.02;4973281;58;1140669;-83
2021/06/10 05:32:40;;;;;;;12.13;7.13;;;;;;;15.70;71.35;101084.47;4980878;58;1138796;-79
2021/06/10 05:37:46;;;;;;;7.27;6.37;;;;;;;15.79;71.35;101074.78;4976041;58;1140388;-81
2021/06/10 05:42:53;;;;;;;8.18;6.95;;;;;;;15.85;71.71;101082.23;4973272;58;1138360;-82
2021/06/10 05:47:59;;;;;;;14.60;5.87;;;;;;;15.82;71.91;101077.17;4973538;58;1138470;-79
2021/06/10 05:53:05;;;;;;;7.30;5.93;;;;;;;15.93;72.58;101073.03;4970664;58;1141038;-81
2021/06/10 05:58:11;;;;;;;5.93;5.27;;;;;;;15.99;72.59;101076.98;4940894;58;1138841;-77
2021/06/10 06:03:16;;;;;;;8.43;5.10;;;;;;;16.09;72.50;101079.14;4841218;59;1138600;-80
2021/06/10 06:08:22;;;;;;;6.57;4.53;;;;;;;16.19;72.54;101082.14;4791249;60;1138688;-78
2021/06/10 06:13:45;;;;;;;7.37;6.13;;;;;;;16.32;72.73;101071.70;4791326;60;1138793;-77
2021/06/10 06:18:44;;;;;;;6.35;4.92;;;;;;;16.38;72.71;101079.11;4789579;60;1138459;-75
2021/06/10 06:23:50;;;;;;;9.88;5.55;;;;;;;16.45;73.29;101077.57;4939774;58;1139027;-79
2021/06/10 06:28:59;;;;;;;4.03;3.47;;;;;;;16.56;73.42;101087.23;4939823;58;1138498;-78
2021/06/10 06:34:03;;;;;;;6.10;4.43;;;;;;;16.67;74.44;101091.10;4860248;58;1138397;-78
2021/06/10 06:39:09;;;;;;;5.90;4.03;;;;;;;16.70;74.37;101089.48;4774777;60;1138517;-77
2021/06/10 06:44:14;;;;;;;6.13;5.23;;;;;;;16.72;74.22;101098.20;4791321;60;1138807;-80
2021/06/10 06:49:20;;;;;;;5.27;4.77;;;;;;;16.75;74.26;101090.75;4791353;60;1138421;-77
2021/06/10 06:54:26;;;;;;;8.47;5.10;;;;;;;16.90;75.00;101089.79;4939961;58;1138299;-79
2021/06/10 06:59:32;;;;;;;4.97;4.47;;;;;;;17.05;75.46;101096.84;4949053;58;1148065;-78
2021/06/10 07:04:38;;;;;;;7.78;3.65;;;;;;;17.28;76.15;101099.95;5022148;56;1138585;-78
2021/06/10 07:09:44;;;;;;;3.75;3.45;;;;;;;17.49;75.06;101096.55;4970887;57;1138491;-80
2021/06/10 07:14:51;;;;;;;5.65;3.25;;;;;;;17.69;74.86;101097.31;4930293;59;1138572;-78
2021/06/10 07:19:57;;;;;;;4.07;3.03;;;;;;;17.95;74.17;101100.08;4971172;57;1138312;-80
2021/06/10 07:25:03;;;;;;;2.40;2.30;;;;;;;18.16;72.95;101092.59;4930407;59;1138312;-80
2021/06/10 07:30:10;;;;;;;3.50;2.47;;;;;;;18.46;72.81;101091.33;4971053;57;1138323;-77
2021/06/10 07:35:23;;;;;;;2.90;2.45;;;;;;;18.72;70.78;101092.70;4929909;59;1138788;-81
2021/06/10 07:40:25;;;;;;;3.00;2.53;;;;;;;19.00;69.81;101098.73;4966139;57;1138355;-79
2021/06/10 07:45:31;;;;;;;3.17;2.60;;;;;;;19.12;68.61;101091.58;5044946;58;1138712;-83
2021/06/10 07:50:38;;;;;;;2.66;1.80;;;;;;;19.32;69.10;101093.02;5051953;58;1138613;-77
2021/06/10 07:55:44;;;;;;;2.50;2.30;;;;;;;19.61;67.45;101096.67;5052072;57;1138612;-78
2021/06/10 08:00:50;;;;;;;1.60;1.50;;;;;;;19.86;66.62;101094.87;5009650;56;1138702;-77
2021/06/10 08:05:57;;;;;;;2.10;1.90;;;;;;;20.00;65.06;101085.35;4959881;58;1138530;-77
2021/06/10 08:11:06;;;;;;;2.72;2.55;;;;;;;20.17;65.68;101088.36;4900050;58;1138700;-77
2021/06/10 08:16:11;;;;;;;3.37;1.65;;;;;;;20.37;62.75;101084.87;4900514;58;1138469;-76
2021/06/10 08:21:18;;;;;;;1.40;1.40;;;;;;;20.43;62.33;101079.34;4900168;58;1138410;-75
2021/06/10 08:26:24;;;;;;;1.12;1.12;;;;;;;20.62;59.97;101081.14;4900271;58;1138760;-79
2021/06/10 08:31:30;;;;;;;2.17;2.08;;;;;;;20.91;60.49;101085.14;4900630;58;1138458;-76
2021/06/10 08:36:36;;;;;;;2.45;2.20;;;;;;;20.93;58.55;101082.59;4903549;58;1138411;-76
2021/06/10 08:41:42;;;;;;;3.55;2.52;;;;;;;21.07;58.52;101085.09;4900146;58;1138768;-77
2021/06/10 08:46:50;;;;;;;2.17;1.75;;;;;;;21.17;58.05;101080.34;4900097;58;1138791;-78
2021/06/10 08:51:57;;;;;;;5.37;2.92;;;;;;;21.30;58.44;101078.46;4911785;58;1138820;-77
2021/06/10 08:57:03;;;;;;;2.52;2.33;;;;;;;21.47;56.60;101081.41;4966179;58;1138836;-79
2021/06/10 09:02:10;;;;;;;6.40;2.10;;;;;;;21.63;57.25;101073.75;4990836;58;1138505;-76
2021/06/10 09:07:16;;;;;;;1.98;1.87;;;;;;;21.92;56.53;101071.20;5001007;58;1138407;-81
2021/06/10 09:12:21;;;;;;;3.00;1.98;;;;;;;21.95;54.36;101070.02;4979223;58;1138492;-77
2021/06/10 09:17:42;;;;;;;6.22;2.47;;;;;;;22.03;53.45;101070.81;4978909;58;1138808;-79
2021/06/10 09:22:51;;;;;;;2.08;1.80;;;;;;;22.04;53.39;101063.56;4979287;58;1138314;-75
2021/06/10 09:28:03;;;;;;;3.75;2.60;;;;;;;22.25;53.40;101067.78;4979365;58;1138267;-76
2021/06/10 09:33:15;;;;;;;3.17;2.27;;;;;;;22.40;52.81;101066.47;4979646;58;1138473;-76
2021/06/10 09:38:23;;;;;;;2.83;2.62;;;;;;;22.58;53.65;101056.70;4979825;58;1138785;-75
2021/06/10 09:43:47;;;;;;;2.65;2.33;;;;;;;22.70;52.50;101064.14;4979880;58;1138332;-81
2021/06/10 09:49:07;;;;;;;4.28;2.70;;;;;;;22.77;51.94;101057.00;4980092;58;1138471;-84
2021/06/10 09:54:14;;;;;;;4.42;2.83;;;;;;;22.86;50.99;101053.72;4980036;58;1138502;-81
2021/06/10 09:59:47;;;;;;;4.60;2.58;;;;;;;22.82;52.35;101053.77;4937368;58;1138525;-74
2021/06/10 10:05:07;;;;;;;;;;;;;;;23.10;50.47;101052.07;4969147;58;1138734;-76
2021/06/10 10:10:14;;;;;;;3.80;3.10;;;;;;;23.32;50.86;101044.89;4853009;59;976007;-76
2021/06/10 10:15:21;;;;;;;3.47;3.10;;;;;;;23.39;50.21;101042.25;4857523;59;1136215;-76
2021/06/10 10:20:28;;;;;;;3.70;3.15;;;;;;;23.50;51.88;101038.56;4859148;59;1138688;-78
2021/06/10 10:25:35;;;;;;;2.50;2.30;;;;;;;23.59;50.15;101029.85;4871111;59;1138417;-76
2021/06/10 10:30:44;;;;;;;2.40;2.22;;;;;;;23.59;50.15;101029.85;4865779;59;1138315;-78
2021/06/10 10:35:55;;;;;;;3.70;2.60;;;;;;;23.74;51.36;101025.23;4852228;59;1138486;-81
2021/06/10 10:41:05;;;;;;;3.17;2.20;;;;;;;23.80;50.01;101018.23;4871051;59;1138549;-81
2021/06/10 10:46:18;;;;;;;3.60;1.70;;;;;;;24.05;48.78;101024.06;4836840;59;1138681;-77
2021/06/10 10:51:38;;;;;;;2.52;2.33;;;;;;;24.15;48.56;101009.69;4858686;59;1138622;-77
2021/06/10 10:56:45;;;;;;;1.92;1.82;;;;;;;24.22;50.00;101001.12;4839966;59;1138367;-81
2021/06/10 11:02:06;;;;;;;3.05;2.02;;;;;;;24.44;47.74;101003.31;4840388;59;1138341;-81
2021/06/10 11:07:42;;;;;;;1.75;1.65;;;;;;;24.51;47.90;101008.23;4841651;58;1138363;-82
2021/06/10 11:12:56;;;;;;;1.90;1.80;;;;;;;24.24;45.99;101004.51;4840046;59;1138501;-78
2021/06/10 11:18:06;;;;;;;2.52;2.15;;;;;;;24.14;46.34;100999.91;4839889;59;1138311;-79
2021/06/10 11:23:29;;;;;;;2.15;2.02;;;;;;;24.20;47.54;101002.67;4839764;59;1138278;-75
2021/06/10 11:28:39;;;;;;;5.37;2.62;;;;;;;24.06;45.11;100996.84;4853694;59;1138219;-79
2021/06/10 11:33:45;;;;;;;3.15;2.30;;;;;;;23.95;46.34;100991.98;4839810;59;1138598;-78
2021/06/10 11:38:52;;;;;;;2.70;2.37;;;;;;;24.45;47.96;100983.32;4839827;59;1138495;-80
2021/06/10 11:43:58;;;;;;;2.52;2.33;;;;;;;25.00;47.06;100974.81;4853576;59;1138728;-77
2021/06/10 11:49:08;;;;;;;3.95;2.17;;;;;;;25.25;44.45;100970.52;4840061;59;1138776;-79
2021/06/10 11:54:17;;;;;;;2.00;1.90;;;;;;;24.92;44.03;100970.88;4836480;59;1138695;-78
2021/06/10 11:59:29;;;;;;;2.50;1.90;;;;;;;24.95;44.11;100963.23;4836630;59;1138492;-81
2021/06/10 12:04:40;;;;;;;4.57;2.70;;;;;;;25.08;44.31;100964.62;4840234;59;1138620;-79
2021/06/10 12:09:57;;;;;;;4.67;2.67;;;;;;;25.16;42.23;100960.41;4902452;58;1138397;-77
2021/06/10 12:15:03;;;;;;;1.92;1.82;;;;;;;25.30;42.20;100953.67;4917354;58;1138507;-80
2021/06/10 12:20:25;;;;;;;1.72;1.70;;;;;;;25.29;40.08;100946.06;4916901;58;1138719;-77
2021/06/10 12:25:34;;;;;;;2.57;2.10;;;;;;;25.60;42.05;100946.85;4908502;58;1138343;-78
2021/06/10 12:30:40;;;;;;;1.92;1.47;;;;;;;26.03;42.74;100931.55;4917144;58;1138454;-81
2021/06/10 12:35:49;;;;;;;2.25;1.57;;;;;;;26.30;41.80;100926.95;4916842;58;1138341;-78
2021/06/10 12:40:57;;;;;;;2.25;1.62;;;;;;;26.32;41.34;100930.29;4916388;58;1138771;-77
2021/06/10 12:46:06;;;;;;;2.42;1.85;;;;;;;26.11;40.10;100924.58;4915745;58;1138700;-76
2021/06/10 12:51:32;;;;;;;1.10;1.10;;;;;;;26.13;40.95;100915.69;4917592;57;1138765;-80
2021/06/10 12:56:52;;;;;;;3.10;1.32;;;;;;;26.47;39.75;100914.08;4932981;58;1138332;-81
2021/06/10 13:02:04;;;;;;;1.57;1.32;;;;;;;26.60;37.44;100902.34;4808381;60;1138393;-80
2021/06/10 13:07:40;;;;;;;3.33;1.75;;;;;;;26.67;38.71;100898.26;4834507;59;1138486;-78
2021/06/10 13:12:50;;;;;;;1.52;1.50;;;;;;;26.36;38.29;100901.70;4817698;60;1139011;-80
2021/06/10 13:18:13;;;;;;;1.35;1.25;;;;;;;26.36;39.83;100888.14;4867109;58;1138596;-80
2021/06/10 13:23:24;;;;;;;1.40;1.30;;;;;;;26.62;38.00;100885.33;4815977;60;1138924;-79
2021/06/10 13:28:30;;;;;;;4.42;1.85;;;;;;;26.53;37.08;100877.13;4867706;58;1138449;-81
2021/06/10 13:33:35;;;;;;;3.65;1.75;;;;;;;26.31;37.76;100873.86;4762041;61;1138521;-75
2021/06/10 13:38:42;;;;;;;5.15;1.57;;;;;;;26.30;39.13;100868.64;4957446;58;1138478;-75
2021/06/10 13:43:48;;;;;;;1.35;1.25;;;;;;;26.43;40.20;100859.94;4957400;58;1139062;-78
2021/06/10 13:48:54;;;;;;;3.07;1.30;;;;;;;26.69;40.29;100858.17;4957406;59;1138514;-78
2021/06/10 13:54:00;;;;;;;5.58;1.37;;;;;;;27.03;38.68;100861.89;4957208;59;1138714;-75
2021/06/10 13:59:06;;;;;;;1.77;1.30;;;;;;;26.98;36.73;100858.98;4957196;59;1138394;-78
2021/06/10 14:04:12;;;;;;;4.85;0.68;;;;;;;26.79;36.80;100849.87;4957061;59;1138343;-81
2021/06/10 14:09:18;;;;;;;1.67;1.10;;;;;;;26.87;37.05;100845.56;4979331;57;1138448;-77
2021/06/10 14:14:24;;;;;;;1.05;1.05;;;;;;;26.83;37.26;100847.56;5016520;58;1138459;-75
2021/06/10 14:19:30;;;;;;;1.55;0.98;;;;;;;26.81;37.32;100840.16;5019856;58;1138968;-78
2021/06/10 14:24:36;;;;;;;1.42;0.70;;;;;;;26.75;37.44;100844.56;4917145;58;1139109;-78
2021/06/10 14:29:45;;;;;;;0.95;0.95;;;;;;;26.84;37.28;100840.56;4917669;58;1138576;-77
2021/06/10 14:34:54;;;;;;;2.27;1.17;;;;;;;26.74;37.31;100845.61;4917263;58;1139004;-76
2021/06/10 14:40:01;;;;;;;1.17;1.17;;;;;;;26.68;37.72;100846.48;4917230;58;1138852;-77
2021/06/10 14:45:09;;;;;;;1.62;1.62;;;;;;;26.52;37.26;100841.55;4917039;58;1138818;-78
2021/06/10 14:50:15;;;;;;;5.28;4.85;;;;;;;26.44;38.31;100842.61;4917280;58;1138700;-82
2021/06/10 14:55:26;;;;;;;58.78;3.72;;;;;;;26.36;38.44;100842.88;4917109;58;1138635;-76
2021/06/10 15:00:29;;;;;;;7.87;1.67;;;;;;;26.51;39.01;100836.66;4916904;58;1140692;-79
2021/06/10 15:05:35;;;;;;;1.95;1.10;;;;;;;26.72;38.71;100831.97;4917163;58;1138723;-79
2021/06/10 15:10:41;;;;;;;7.65;4.60;;;;;;;26.63;38.18;100828.14;4977133;57;1138560;-77
2021/06/10 15:15:47;;;;;;;4.92;3.85;;;;;;;26.51;38.32;100824.97;5065557;57;1138972;-80
2021/06/10 15:20:54;;;;;;;13.38;3.08;;;;;;;26.46;38.57;100822.06;5001903;58;1138755;-75
2021/06/10 15:26:00;;;;;;;9.93;2.10;;;;;;;26.43;38.54;100821.16;5001780;58;1140957;-76
2021/06/10 15:31:07;;;;;;;18.77;2.15;;;;;;;26.41;38.89;100819.19;5001711;58;1138742;-74
2021/06/10 15:36:14;;;;;;;4.80;1.80;;;;;;;26.50;39.23;100816.00;5000982;58;1140545;-76
2021/06/10 15:41:20;;;;;;;3.62;2.98;;;;;;;26.54;38.95;100812.34;5083942;57;1138297;-76
2021/06/10 15:46:26;;;;;;;7.17;2.70;;;;;;;26.57;38.74;100812.74;5085215;57;1138260;-76
2021/06/10 15:51:33;;;;;;;5.17;3.80;;;;;;;26.49;38.69;100806.72;5085102;57;1138328;-73
2021/06/10 15:56:41;;;;;;;11.65;4.47;;;;;;;26.42;38.86;100807.29;5085100;57;1138972;-75
2021/06/10 16:01:47;;;;;;;2.20;1.62;;;;;;;26.55;39.71;100799.91;5085212;57;1140773;-75
2021/06/10 16:06:53;;;;;;;2.83;1.80;;;;;;;26.67;39.17;100793.27;5085193;57;1138884;-76
2021/06/10 16:12:00;;;;;;;5.23;1.60;;;;;;;26.87;38.71;100794.52;5057521;57;1138381;-74
2021/06/10 16:17:06;;;;;;;5.40;1.55;;;;;;;26.90;38.35;100792.69;4976937;58;1138613;-76
2021/06/10 16:22:12;;;;;;;4.78;2.42;;;;;;;26.87;38.64;100787.20;4977337;57;1138596;-76
2021/06/10 16:27:18;;;;;;;1.30;1.22;;;;;;;26.98;38.33;100777.55;4976941;58;1139231;-73
2021/06/10 16:32:25;;;;;;;1.92;1.35;;;;;;;27.04;37.85;100776.64;4977041;58;1138351;-73
2021/06/10 16:37:34;;;;;;;3.02;1.60;;;;;;;27.04;37.35;100769.86;4977252;58;1138486;-74
2021/06/10 16:42:40;;;;;;;1.42;1.22;;;;;;;27.12;37.28;100766.88;4976984;58;1138244;-72
2021/06/10 16:47:51;;;;;;;2.17;1.00;;;;;;;27.01;36.60;100765.42;4974087;58;1138924;-73
2021/06/10 16:52:54;;;;;;;1.33;1.23;;;;;;;26.91;36.45;100762.62;4976372;58;1138637;-75
2021/06/10 16:57:59;;;;;;;1.02;1.02;;;;;;;26.82;36.60;100768.55;4976530;58;1138830;-72
2021/06/10 17:08:12;;;;;;;1.62;1.42;;;;;;;26.41;37.08;100764.41;4977151;58;1138805;-73
2021/06/10 17:13:18;;;;;;;1.82;1.50;;;;;;;26.45;37.94;100764.27;4977049;58;1138540;-76
2021/06/10 17:18:24;;;;;;;3.90;2.22;;;;;;;26.48;37.37;100763.00;4977306;57;1138520;-75
2021/06/10 17:23:31;;;;;;;2.83;2.02;;;;;;;26.52;37.65;100757.46;4977338;58;1138444;-76
2021/06/10 17:28:36;;;;;;;3.50;2.30;;;;;;;26.46;38.04;100763.74;4930896;58;1138559;-77
2021/06/10 17:33:42;;;;;;;2.75;1.85;;;;;;;26.36;38.07;100760.16;4840175;59;1138417;-73
2021/06/10 17:38:47;;;;;;;9.20;1.85;;;;;;;26.22;37.70;100770.20;4839719;59;1138798;-76
2021/06/10 17:43:53;;;;;;;7.65;3.80;;;;;;;26.22;37.91;100766.66;4839793;59;1138850;-77
2021/06/10 17:48:59;;;;;;;1.95;1.50;;;;;;;26.25;38.05;100774.37;4837743;59;1138724;-77
2021/06/10 17:54:06;;;;;;;2.62;2.30;;;;;;;26.16;37.82;100771.57;4837047;59;1138753;-78
2021/06/10 17:59:11;;;;;;;7.15;2.67;;;;;;;26.11;38.08;100769.53;4834459;59;1138769;-77
2021/06/10 18:04:17;;;;;;;7.45;2.30;;;;;;;26.08;38.26;100773.18;4837887;59;1138494;-76
2021/06/10 18:09:23;;;;;;;8.45;2.40;;;;;;;25.96;38.19;100778.96;4843580;59;1138786;-73
2021/06/10 18:14:29;;;;;;;5.85;3.85;;;;;;;25.87;38.50;100785.12;4847535;59;1138775;-74
2021/06/10 18:19:36;;;;;;;7.30;2.15;;;;;;;25.77;38.29;100785.57;4968479;58;1138829;-75
2021/06/10 18:24:41;;;;;;;4.03;2.70;;;;;;;25.75;38.51;100788.17;4928052;58;1138554;-76
2021/06/10 18:29:47;;;;;;;2.87;2.10;;;;;;;25.68;38.45;100791.41;4927991;58;1138379;-73
2021/06/10 18:34:53;;;;;;;7.00;1.87;;;;;;;25.56;38.83;100787.96;4928215;59;1138709;-75
2021/06/10 18:39:59;;;;;;;4.30;1.82;;;;;;;25.53;39.09;100792.95;4927946;58;1138945;-75
2021/06/10 18:45:07;;;;;;;4.10;2.37;;;;;;;25.46;39.22;100794.34;4927994;59;1138780;-75
2021/06/10 18:50:17;;;;;;;14.05;3.50;;;;;;;25.39;39.82;100787.24;4928010;59;1138930;-74
2021/06/10 18:55:23;;;;;;;11.93;5.60;;;;;;;25.20;39.83;100793.00;4924956;59;1141124;-78
2021/06/10 19:00:28;;;;;;;18.80;6.78;;;;;;;25.00;40.58;100797.55;4928137;59;1140979;-71
2021/06/10 19:05:35;;;;;;;13.83;5.80;;;;;;;24.86;41.05;100812.91;4927583;59;1140895;-77
2021/06/10 19:10:41;;;;;;;26.48;9.15;;;;;;;24.70;41.07;100811.41;4927820;59;1140486;-75
2021/06/10 19:15:47;;;;;;;11.48;4.92;;;;;;;24.51;41.38;100810.82;4907146;59;1140840;-77
2021/06/10 19:20:54;;;;;;;11.28;3.98;;;;;;;24.18;41.95;100816.89;4870074;58;1140645;-78
2021/06/10 19:26:00;;;;;;;4.67;3.33;;;;;;;23.85;42.02;100823.45;4883744;59;1140494;-78
2021/06/10 19:31:06;;;;;;;3.27;2.87;;;;;;;23.63;42.53;100822.38;4883693;58;1138601;-76
2021/06/10 19:36:12;;;;;;;6.45;2.60;;;;;;;23.48;42.79;100820.58;4883208;59;1138907;-75
2021/06/10 19:41:17;;;;;;;7.78;3.08;;;;;;;23.39;43.39;100827.13;4825545;60;1138856;-76
2021/06/10 19:46:25;;;;;;;3.37;2.75;;;;;;;23.34;43.49;100826.89;5019511;58;1138632;-77
2021/06/10 19:51:31;;;;;;;9.48;3.02;;;;;;;23.29;43.77;100829.33;5019826;58;1138830;-74
2021/06/10 19:56:38;;;;;;;19.48;3.58;;;;;;;23.20;43.85;100834.55;5019847;58;1138473;-75
2021/06/10 20:01:43;;;;;;;18.45;3.85;;;;;;;23.13;44.02;100839.05;5019511;58;1140856;-76
2021/06/10 20:06:52;;;;;;;14.55;3.20;;;;;;;23.01;43.83;100846.82;4917168;58;1140710;-76
2021/06/10 20:11:58;;;;;;;8.80;4.20;;;;;;;22.92;44.54;100847.11;4916703;58;1140922;-74
2021/06/10 20:17:05;;;;;;;10.33;4.40;;;;;;;22.92;44.99;100843.91;4916965;58;1138491;-74
2021/06/10 20:22:12;;;;;;;14.47;5.95;;;;;;;22.91;44.83;100849.52;5059177;57;1141223;-77
2021/06/10 20:32:25;;;;;;;23.65;9.38;;;;;;;22.44;45.01;100857.55;5064554;57;1140924;-74
2021/06/10 20:37:33;;;;;;;32.10;13.13;;;;;;;21.64;48.53;100850.65;5061457;57;1140858;-78
2021/06/10 20:42:39;;;;;;;23.35;9.75;;;;;;;21.64;48.53;100850.65;5096506;57;1143039;-75
2021/06/10 20:47:45;;;;;;;23.27;9.33;;;;;;;21.39;49.50;100864.81;5096965;57;1140799;-75
2021/06/10 20:52:51;;;;;;;17.82;7.20;;;;;;;21.22;49.99;100855.22;5097328;57;1140538;-79
2021/06/10 20:57:59;;;;;;;9.03;4.30;;;;;;;21.20;50.27;100861.28;5093330;57;1140751;-78
2021/06/10 21:03:06;;;;;;;6.40;3.45;;;;;;;21.17;50.16;100872.37;5096262;57;1138455;-78
2021/06/10 21:08:12;;;;;;;9.15;4.90;;;;;;;20.97;49.85;100870.64;5097202;57;1138678;-79
2021/06/10 21:13:18;;;;;;;13.08;4.75;;;;;;;20.67;50.18;100869.64;5084836;57;1138359;-75
2021/06/10 21:18:24;;;;;;;15.20;8.03;;;;;;;20.51;50.71;100873.24;5064969;57;1140362;-77
2021/06/10 21:23:30;;;;;;;10.50;5.95;;;;;;;20.52;51.27;100875.42;4932431;57;1140862;-79
2021/06/10 21:28:36;;;;;;;9.65;5.10;;;;;;;20.50;51.24;100872.91;4916421;58;1140622;-77
2021/06/10 21:33:41;;;;;;;9.50;4.45;;;;;;;20.55;51.57;100867.86;4917236;58;1138562;-78
2021/06/10 21:38:49;;;;;;;12.92;6.42;;;;;;;20.58;51.33;100863.48;4934282;58;1142959;-77
2021/06/10 21:43:55;;;;;;;8.65;5.30;;;;;;;20.57;51.38;100856.43;5004624;58;1140859;-74
2021/06/10 21:49:00;;;;;;;14.13;5.53;;;;;;;20.30;51.50;100867.61;4917411;58;1138622;-76
2021/06/10 21:54:06;;;;;;;25.02;10.53;;;;;;;19.96;52.04;100864.68;4917525;58;1140949;-78
2021/06/10 21:59:12;;;;;;;17.02;7.75;;;;;;;19.68;53.23;100865.23;4917130;58;1142743;-78
2021/06/10 22:04:17;;;;;;;14.83;8.80;;;;;;;19.81;54.52;100872.26;4916945;58;1140628;-77
2021/06/10 22:09:23;;;;;;;15.75;6.42;;;;;;;20.15;54.50;100858.09;4917428;58;1140414;-77
2021/06/10 22:14:29;;;;;;;6.75;5.50;;;;;;;20.15;54.50;100858.09;4917130;58;1141049;-78
2021/06/10 22:19:37;;;;;;;7.92;4.95;;;;;;;20.24;54.36;100865.09;4917087;58;1138539;-77
2021/06/10 22:24:44;;;;;;;8.13;4.60;;;;;;;20.29;54.21;100865.42;5035882;57;1139030;-78
2021/06/10 22:29:50;;;;;;;5.75;4.37;;;;;;;20.30;54.23;100859.55;5042554;57;1139098;-76
2021/06/10 22:34:57;;;;;;;6.42;3.92;;;;;;;20.25;54.23;100860.06;5065720;57;1138812;-74
2021/06/10 22:40:06;;;;;;;8.05;4.10;;;;;;;19.89;54.77;100848.91;5065426;57;1138653;-76
2021/06/10 22:45:15;;;;;;;10.53;4.85;;;;;;;19.89;54.77;100848.91;5065618;57;1138662;-76
2021/06/10 22:50:21;;;;;;;15.80;5.45;;;;;;;19.72;55.12;100850.45;5065289;57;1140689;-77
2021/06/10 22:55:30;;;;;;;12.65;5.42;;;;;;;19.37;55.92;100844.94;5065264;57;1140959;-75
2021/06/10 23:00:36;;;;;;;10.45;5.85;;;;;;;19.03;56.65;100850.44;5065189;57;1140571;-74
2021/06/10 23:05:42;;;;;;;9.35;4.90;;;;;;;18.85;57.28;100850.56;5065108;57;1141099;-78
2021/06/10 23:10:49;;;;;;;10.05;4.90;;;;;;;18.86;57.69;100847.73;5097196;57;1139015;-76
2021/06/10 23:15:54;;;;;;;12.76;5.98;;;;;;;18.82;58.01;100832.12;5097142;57;1140965;-78
2021/06/10 23:21:00;;;;;;;16.15;5.62;;;;;;;18.81;58.26;100841.17;5097051;57;1140587;-76
2021/06/10 23:26:12;;;;;;;5.30;3.65;;;;;;;18.90;58.82;100838.36;5039546;57;1140939;-76